Time;durP1;ratioP1;P1;durP2;ratioP2;P2;SDS_P1;SDS_P2;PMS_P1;PMS_P2;Temp;Humidity;BMP_temperature;BMP_pressure;BME280_temperature;BME280_humidity;BME280_pressure;Samples;Min_cycle;Max_cycle;Signal;HPM_P1;HPM_P2
2023/08/19 00:02:04;;;;;;;2.60;1.83;;;;;;;;;;4976217;28;20631;-71
2023/08/19 00:04:31;;;;;;;2.75;1.65;;;;;;;;;;4975983;28;20199;-72
2023/08/19 00:06:57;;;;;;;4.13;1.80;;;;;;;;;;4975869;28;20219;-72
2023/08/19 00:09:22;;;;;;;1.75;1.75;;;;;;;;;;4975435;28;20787;-73
2023/08/19 00:11:49;;;;;;;2.92;2.00;;;;;;;;;;4975905;28;20231;-73
2023/08/19 00:14:16;;;;;;;3.50;1.83;;;;;;;;;;4975929;28;20199;-72
2023/08/19 00:16:43;;;;;;;2.10;2.00;;;;;;;;;;4975642;28;20222;-72
2023/08/19 00:19:09;;;;;;;3.47;1.70;;;;;;;;;;4975306;28;20278;-73
2023/08/19 00:21:36;;;;;;;2.20;2.00;;;;;;;;;;4975700;28;20202;-73
2023/08/19 00:24:02;;;;;;;2.75;1.80;;;;;;;;;;4967927;28;20195;-73
2023/08/19 00:26:29;;;;;;;1.90;1.75;;;;;;;;;;4975678;28;20223;-72
2023/08/19 00:28:56;;;;;;;3.30;1.90;;;;;;;;;;4975161;28;20223;-72
2023/08/19 00:31:25;;;;;;;2.15;2.00;;;;;;;;;;4975532;28;20196;-72
2023/08/19 00:33:51;;;;;;;5.25;2.13;;;;;;;;;;4975236;28;20630;-72
2023/08/19 00:36:17;;;;;;;3.70;2.25;;;;;;;;;;4975862;28;20199;-72
2023/08/19 00:38:45;;;;;;;1.92;1.83;;;;;;;;;;4975107;28;20227;-72
2023/08/19 00:41:12;;;;;;;4.93;2.20;;;;;;;;;;4975396;28;20199;-72
2023/08/19 00:43:38;;;;;;;3.10;2.20;;;;;;;;;;4975230;28;20206;-72
2023/08/19 00:46:04;;;;;;;2.40;2.22;;;;;;;;;;4975144;28;20216;-72
2023/08/19 00:48:32;;;;;;;2.33;1.77;;;;;;;;;;4975217;28;20222;-72
2023/08/19 00:50:58;;;;;;;2.20;2.10;;;;;;;;;;4975561;28;20203;-72
2023/08/19 00:53:25;;;;;;;2.25;2.15;;;;;;;;;;4975302;28;20199;-73
2023/08/19 00:55:51;;;;;;;2.95;1.92;;;;;;;;;;4975055;28;20203;-73
2023/08/19 00:58:19;;;;;;;2.25;1.95;;;;;;;;;;4974707;28;20238;-73
2023/08/19 01:00:46;;;;;;;2.42;2.22;;;;;;;;;;4974824;28;20211;-73
2023/08/19 01:03:12;;;;;;;7.07;2.40;;;;;;;;;;4975194;28;20203;-73
2023/08/19 01:05:44;;;;;;;3.25;2.20;;;;;;;;;;4974321;28;20227;-73
2023/08/19 01:08:12;;;;;;;2.47;2.33;;;;;;;;;;4974678;28;20255;-73
2023/08/19 01:10:43;;;;;;;3.13;1.90;;;;;;;;;;4974902;28;20210;-73
2023/08/19 01:13:11;;;;;;;2.15;2.05;;;;;;;;;;4967631;28;20604;-73
2023/08/19 01:15:42;;;;;;;3.45;2.47;;;;;;;;;;4974946;28;20196;-73
2023/08/19 01:18:10;;;;;;;3.33;2.00;;;;;;;;;;4966951;28;20219;-73
2023/08/19 01:20:37;;;;;;;5.63;2.50;;;;;;;;;;4974697;28;20199;-73
2023/08/19 01:23:07;;;;;;;2.60;2.40;;;;;;;;;;4974475;28;20226;-73
2023/08/19 01:25:34;;;;;;;2.80;2.45;;;;;;;;;;4974499;28;20219;-73
2023/08/19 01:28:02;;;;;;;3.97;2.47;;;;;;;;;;4973941;28;20215;-73
2023/08/19 01:30:30;;;;;;;2.53;2.33;;;;;;;;;;4974681;28;20199;-73
2023/08/19 01:32:57;;;;;;;6.93;2.65;;;;;;;;;;4974446;28;20309;-73
2023/08/19 01:35:24;;;;;;;2.67;2.58;;;;;;;;;;4974347;28;20192;-73
2023/08/19 01:37:54;;;;;;;3.33;2.78;;;;;;;;;;4974263;28;20234;-73
2023/08/19 01:40:21;;;;;;;3.50;2.45;;;;;;;;;;4974302;28;20204;-73
2023/08/19 01:42:50;;;;;;;6.63;2.63;;;;;;;;;;4974135;28;20709;-73
2023/08/19 01:45:17;;;;;;;4.50;2.35;;;;;;;;;;4974250;28;20200;-73
2023/08/19 01:47:43;;;;;;;3.40;2.20;;;;;;;;;;4973799;28;20294;-73
2023/08/19 01:50:10;;;;;;;4.43;2.33;;;;;;;;;;4974282;28;20227;-73
2023/08/19 01:52:37;;;;;;;2.50;2.40;;;;;;;;;;4974039;28;20203;-73
2023/08/19 01:55:03;;;;;;;7.00;2.45;;;;;;;;;;4973712;28;20195;-73
2023/08/19 01:57:30;;;;;;;4.78;2.60;;;;;;;;;;4973913;28;20200;-73
2023/08/19 01:59:57;;;;;;;4.85;2.30;;;;;;;;;;4973860;28;20204;-72
2023/08/19 02:02:23;;;;;;;2.60;2.50;;;;;;;;;;4974070;28;20199;-72
2023/08/19 02:04:50;;;;;;;2.85;2.30;;;;;;;;;;4973724;28;20211;-72
2023/08/19 02:07:16;;;;;;;4.22;2.50;;;;;;;;;;4973669;28;20215;-72
2023/08/19 02:09:43;;;;;;;4.60;2.50;;;;;;;;;;4973193;28;20255;-72
2023/08/19 02:12:09;;;;;;;3.15;2.38;;;;;;;;;;4973879;28;20263;-72
2023/08/19 02:14:36;;;;;;;3.75;2.60;;;;;;;;;;4973873;28;20206;-72
2023/08/19 02:17:04;;;;;;;4.05;2.88;;;;;;;;;;4973107;28;20207;-73
2023/08/19 02:19:30;;;;;;;3.10;2.47;;;;;;;;;;4973386;28;20621;-73
2023/08/19 02:21:56;;;;;;;2.70;2.50;;;;;;;;;;4973287;28;20218;-73
2023/08/19 02:24:22;;;;;;;7.18;2.70;;;;;;;;;;4973439;28;20389;-73
2023/08/19 02:26:49;;;;;;;2.92;2.60;;;;;;;;;;4973231;28;20230;-73
2023/08/19 02:29:15;;;;;;;6.13;3.22;;;;;;;;;;4973206;28;20224;-73
2023/08/19 02:31:41;;;;;;;2.65;2.42;;;;;;;;;;4973429;28;20212;-72
2023/08/19 02:34:09;;;;;;;3.47;2.50;;;;;;;;;;4973350;28;20208;-72
2023/08/19 02:36:35;;;;;;;6.07;2.92;;;;;;;;;;4973097;28;20691;-72
2023/08/19 02:39:01;;;;;;;3.05;2.85;;;;;;;;;;4973067;28;20415;-72
2023/08/19 02:41:28;;;;;;;2.88;2.67;;;;;;;;;;4973335;28;20208;-72
2023/08/19 02:43:54;;;;;;;4.78;3.25;;;;;;;;;;4972891;28;20208;-72
2023/08/19 02:46:21;;;;;;;5.25;3.00;;;;;;;;;;4973108;28;20218;-72
2023/08/19 02:48:47;;;;;;;2.90;2.70;;;;;;;;;;4972626;28;20231;-73
2023/08/19 02:51:15;;;;;;;2.90;2.67;;;;;;;;;;4972874;28;20204;-72
2023/08/19 02:53:41;;;;;;;3.28;2.30;;;;;;;;;;4972928;28;20743;-72
2023/08/19 02:56:07;;;;;;;2.78;2.65;;;;;;;;;;4973108;28;20203;-72
2023/08/19 02:58:34;;;;;;;3.80;2.72;;;;;;;;;;4972579;28;20475;-72
2023/08/19 03:01:01;;;;;;;2.60;2.40;;;;;;;;;;4972816;28;20286;-72
2023/08/19 03:03:27;;;;;;;7.22;2.88;;;;;;;;;;4972724;28;20244;-72
2023/08/19 03:05:57;;;;;;;5.03;3.00;;;;;;;;;;4972498;28;20598;-72
2023/08/19 03:08:25;;;;;;;3.22;2.92;;;;;;;;;;4972436;28;20234;-72
2023/08/19 03:10:51;;;;;;;3.10;2.90;;;;;;;;;;4972724;28;20208;-72
2023/08/19 03:13:17;;;;;;;2.72;2.58;;;;;;;;;;4972827;28;20200;-72
2023/08/19 03:15:44;;;;;;;3.05;2.70;;;;;;;;;;4972794;28;20833;-72
2023/08/19 03:18:11;;;;;;;3.45;3.10;;;;;;;;;;4964500;28;20230;-72
2023/08/19 03:20:38;;;;;;;4.15;2.70;;;;;;;;;;4972908;28;20570;-72
2023/08/19 03:23:04;;;;;;;2.92;2.60;;;;;;;;;;4972456;28;20663;-73
2023/08/19 03:25:32;;;;;;;3.50;2.88;;;;;;;;;;4972759;28;20686;-73
2023/08/19 03:27:58;;;;;;;3.17;2.80;;;;;;;;;;4972069;28;20688;-72
2023/08/19 03:30:24;;;;;;;4.22;3.00;;;;;;;;;;4972248;28;20196;-72
2023/08/19 03:32:50;;;;;;;2.65;2.50;;;;;;;;;;4972864;28;20208;-72
2023/08/19 03:35:17;;;;;;;3.85;2.72;;;;;;;;;;4972318;28;20696;-72
2023/08/19 03:37:43;;;;;;;4.43;3.08;;;;;;;;;;4972352;28;20196;-73
2023/08/19 03:40:10;;;;;;;4.72;3.10;;;;;;;;;;4972470;28;20578;-72
2023/08/19 03:42:38;;;;;;;3.53;2.97;;;;;;;;;;4972730;28;20199;-73
2023/08/19 03:45:04;;;;;;;3.40;2.85;;;;;;;;;;4972360;28;20234;-73
2023/08/19 03:47:31;;;;;;;3.70;2.88;;;;;;;;;;4972034;28;20239;-73
2023/08/19 03:49:57;;;;;;;3.75;3.40;;;;;;;;;;4972434;28;20211;-73
2023/08/19 03:52:25;;;;;;;4.50;2.53;;;;;;;;;;4972494;28;20582;-73
2023/08/19 03:54:51;;;;;;;4.53;3.22;;;;;;;;;;4972347;28;20298;-73
2023/08/19 03:57:18;;;;;;;3.25;2.83;;;;;;;;;;4972285;28;20200;-73
2023/08/19 03:59:48;;;;;;;3.10;2.70;;;;;;;;;;4971993;28;20226;-73
2023/08/19 04:02:15;;;;;;;2.88;2.67;;;;;;;;;;4964982;28;20215;-73
2023/08/19 04:04:56;;;;;;;4.97;3.10;;;;;;;;;;4972363;28;20207;-73
2023/08/19 04:07:22;;;;;;;3.28;3.00;;;;;;;;;;4965774;28;20216;-73
2023/08/19 04:09:48;;;;;;;3.30;3.00;;;;;;;;;;4971764;28;20234;-73
2023/08/19 04:12:15;;;;;;;3.38;2.92;;;;;;;;;;4972152;28;20204;-73
2023/08/19 04:14:42;;;;;;;5.68;3.20;;;;;;;;;;4972206;28;20212;-73
2023/08/19 04:17:09;;;;;;;3.28;3.00;;;;;;;;;;4972118;28;20193;-65
2023/08/19 04:19:37;;;;;;;3.75;3.13;;;;;;;;;;4971652;28;20602;-65
2023/08/19 04:22:04;;;;;;;4.75;3.10;;;;;;;;;;4971906;28;20602;-65
2023/08/19 04:24:32;;;;;;;4.53;3.03;;;;;;;;;;4972548;28;20216;-65
2023/08/19 04:26:58;;;;;;;3.47;3.20;;;;;;;;;;4971765;28;20216;-65
2023/08/19 04:29:24;;;;;;;6.07;3.45;;;;;;;;;;4971919;28;20223;-65
2023/08/19 04:31:51;;;;;;;3.28;2.60;;;;;;;;;;4972084;28;20226;-65
2023/08/19 04:34:18;;;;;;;3.80;2.85;;;;;;;;;;4972005;28;20227;-65
2023/08/19 04:36:45;;;;;;;4.80;3.10;;;;;;;;;;4971993;28;20668;-65
2023/08/19 04:39:11;;;;;;;3.72;3.10;;;;;;;;;;4971538;28;20223;-65
2023/08/19 04:41:37;;;;;;;4.82;3.08;;;;;;;;;;4973666;28;20215;-65
2023/08/19 04:44:05;;;;;;;3.97;3.53;;;;;;;;;;4975267;28;20203;-65
2023/08/19 04:46:31;;;;;;;3.22;3.03;;;;;;;;;;4975348;28;20230;-65
2023/08/19 04:48:57;;;;;;;3.50;3.20;;;;;;;;;;4974860;28;20259;-65
2023/08/19 04:51:25;;;;;;;3.85;3.47;;;;;;;;;;4975302;28;20195;-65
2023/08/19 04:53:51;;;;;;;3.35;3.20;;;;;;;;;;4975321;28;20203;-65
2023/08/19 04:56:18;;;;;;;5.90;3.10;;;;;;;;;;4975211;28;20263;-65
2023/08/19 04:58:44;;;;;;;4.00;3.55;;;;;;;;;;4974924;28;20234;-63
2023/08/19 05:01:10;;;;;;;3.47;3.17;;;;;;;;;;4975034;28;20203;-64
2023/08/19 05:03:36;;;;;;;3.85;3.53;;;;;;;;;;4974838;28;20691;-64
2023/08/19 05:06:03;;;;;;;4.13;3.50;;;;;;;;;;4974986;28;20199;-64
2023/08/19 05:08:30;;;;;;;5.60;3.75;;;;;;;;;;4974379;28;20558;-65
2023/08/19 05:10:57;;;;;;;3.45;3.20;;;;;;;;;;4974619;28;20211;-65
2023/08/19 05:13:23;;;;;;;4.28;3.53;;;;;;;;;;4974885;28;20208;-65
2023/08/19 05:15:49;;;;;;;3.75;3.30;;;;;;;;;;4974925;28;20203;-65
2023/08/19 05:18:16;;;;;;;3.58;3.28;;;;;;;;;;4966546;28;20239;-65
2023/08/19 05:20:42;;;;;;;3.83;3.53;;;;;;;;;;4974689;28;20697;-65
2023/08/19 05:23:08;;;;;;;5.10;3.58;;;;;;;;;;4974370;28;20284;-65
2023/08/19 05:25:36;;;;;;;4.75;3.83;;;;;;;;;;4974754;28;20204;-65
2023/08/19 05:28:03;;;;;;;5.03;3.88;;;;;;;;;;4974162;28;20223;-65
2023/08/19 05:30:29;;;;;;;4.15;3.72;;;;;;;;;;4974638;28;20204;-65
2023/08/19 05:32:55;;;;;;;5.80;3.70;;;;;;;;;;4974361;28;20199;-65
2023/08/19 05:35:21;;;;;;;4.60;3.50;;;;;;;;;;4974527;28;20200;-65
2023/08/19 05:37:48;;;;;;;5.78;4.10;;;;;;;;;;4973972;28;20215;-65
2023/08/19 05:40:14;;;;;;;7.45;3.65;;;;;;;;;;4974084;28;20586;-64
2023/08/19 05:42:42;;;;;;;4.00;3.70;;;;;;;;;;4974570;28;20214;-64
2023/08/19 05:45:08;;;;;;;3.92;3.63;;;;;;;;;;4974253;28;20231;-65
2023/08/19 05:47:34;;;;;;;7.88;4.30;;;;;;;;;;4973873;28;20227;-64
2023/08/19 05:50:01;;;;;;;6.10;4.28;;;;;;;;;;4974100;28;20575;-64
2023/08/19 05:52:27;;;;;;;5.80;3.95;;;;;;;;;;4973894;28;20203;-64
2023/08/19 05:54:53;;;;;;;6.32;4.05;;;;;;;;;;4974171;28;20563;-65
2023/08/19 05:57:20;;;;;;;7.40;4.22;;;;;;;;;;4974018;28;20207;-64
2023/08/19 05:59:47;;;;;;;6.43;4.40;;;;;;;;;;4973786;28;20602;-64
2023/08/19 06:02:14;;;;;;;6.60;4.20;;;;;;;;;;4973766;28;20196;-65
2023/08/19 06:04:40;;;;;;;5.20;4.10;;;;;;;;;;4974022;28;20208;-64
2023/08/19 06:07:06;;;;;;;5.80;3.97;;;;;;;;;;4973547;28;20232;-64
2023/08/19 06:09:32;;;;;;;11.52;4.30;;;;;;;;;;4973665;28;20230;-64
2023/08/19 06:11:59;;;;;;;4.95;3.85;;;;;;;;;;4974231;28;20215;-64
2023/08/19 06:14:25;;;;;;;8.73;4.03;;;;;;;;;;4974026;28;20201;-65
2023/08/19 06:16:53;;;;;;;5.95;3.67;;;;;;;;;;4973838;28;20204;-65
2023/08/19 06:19:19;;;;;;;7.95;4.32;;;;;;;;;;4965758;28;20223;-65
2023/08/19 06:21:46;;;;;;;6.63;3.85;;;;;;;;;;4973735;28;20212;-65
2023/08/19 06:24:12;;;;;;;5.75;3.90;;;;;;;;;;4973798;28;20211;-65
2023/08/19 06:26:39;;;;;;;9.23;3.83;;;;;;;;;;4973877;28;20207;-65
2023/08/19 06:29:05;;;;;;;4.63;3.70;;;;;;;;;;4973346;28;20227;-65
2023/08/19 06:31:32;;;;;;;7.13;3.90;;;;;;;;;;4973627;28;20668;-65
2023/08/19 06:34:00;;;;;;;5.25;4.10;;;;;;;;;;4973532;28;20258;-65
2023/08/19 06:36:28;;;;;;;4.63;3.83;;;;;;;;;;4973735;28;20219;-65
2023/08/19 06:38:59;;;;;;;6.65;4.05;;;;;;;;;;4973251;28;20227;-65
2023/08/19 06:41:25;;;;;;;5.75;3.95;;;;;;;;;;4973543;28;20203;-65
2023/08/19 06:43:52;;;;;;;5.05;4.07;;;;;;;;;;4973499;28;20215;-65
2023/08/19 06:46:20;;;;;;;9.38;3.88;;;;;;;;;;4973402;28;20226;-65
2023/08/19 06:48:46;;;;;;;4.85;3.80;;;;;;;;;;4972950;28;20227;-66
2023/08/19 06:51:14;;;;;;;6.35;4.43;;;;;;;;;;4973573;28;20218;-66
2023/08/19 06:53:41;;;;;;;6.93;3.90;;;;;;;;;;4973253;28;20687;-65
2023/08/19 06:56:11;;;;;;;8.57;4.15;;;;;;;;;;4973145;28;20210;-65
2023/08/19 06:58:38;;;;;;;4.93;3.50;;;;;;;;;;4972774;28;20241;-65
2023/08/19 07:01:07;;;;;;;8.45;3.83;;;;;;;;;;4972899;28;20211;-65
2023/08/19 07:03:36;;;;;;;7.40;4.13;;;;;;;;;;4972712;28;20195;-65
2023/08/19 07:06:02;;;;;;;5.22;3.70;;;;;;;;;;4972871;28;20203;-65
2023/08/19 07:08:31;;;;;;;4.90;3.83;;;;;;;;;;4972262;28;20226;-65
2023/08/19 07:10:58;;;;;;;9.18;3.95;;;;;;;;;;4972688;28;20199;-65
2023/08/19 07:13:25;;;;;;;6.68;3.25;;;;;;;;;;4972791;28;20196;-65
2023/08/19 07:15:53;;;;;;;5.05;3.30;;;;;;;;;;4973224;28;20222;-65
2023/08/19 07:18:20;;;;;;;5.97;3.67;;;;;;;;;;4972418;28;20219;-65
2023/08/19 07:20:47;;;;;;;7.93;4.45;;;;;;;;;;4972869;28;20203;-65
2023/08/19 07:23:14;;;;;;;10.70;4.10;;;;;;;;;;4972458;28;20200;-65
2023/08/19 07:25:42;;;;;;;8.32;3.80;;;;;;;;;;4972635;28;20200;-65
2023/08/19 07:28:09;;;;;;;5.15;3.45;;;;;;;;;;4971785;28;20598;-65
2023/08/19 07:30:36;;;;;;;6.70;3.75;;;;;;;;;;4972704;28;20202;-65
2023/08/19 07:33:04;;;;;;;8.03;3.90;;;;;;;;;;4971765;28;20450;-73
2023/08/19 07:35:30;;;;;;;4.15;3.53;;;;;;;;;;4972260;28;20796;-73
2023/08/19 07:37:56;;;;;;;9.43;3.80;;;;;;;;;;4972031;28;20230;-73
2023/08/19 07:40:23;;;;;;;7.68;3.50;;;;;;;;;;4972560;28;20202;-73
2023/08/19 07:42:50;;;;;;;5.28;3.58;;;;;;;;;;4972415;28;20684;-73
2023/08/19 07:45:17;;;;;;;5.75;3.50;;;;;;;;;;4972550;28;20214;-73
2023/08/19 07:47:43;;;;;;;8.45;3.33;;;;;;;;;;4972036;28;20689;-72
2023/08/19 07:50:09;;;;;;;7.07;3.80;;;;;;;;;;4972546;28;20214;-72
2023/08/19 07:52:36;;;;;;;8.90;3.88;;;;;;;;;;4972411;28;20195;-72
2023/08/19 07:55:02;;;;;;;10.18;3.97;;;;;;;;;;4972206;28;20695;-73
2023/08/19 07:57:28;;;;;;;8.82;3.55;;;;;;;;;;4972031;28;20196;-73
2023/08/19 07:59:56;;;;;;;9.07;3.20;;;;;;;;;;4972529;28;20199;-73
2023/08/19 08:02:22;;;;;;;5.15;3.40;;;;;;;;;;4972492;28;20212;-73
2023/08/19 08:04:49;;;;;;;10.43;3.33;;;;;;;;;;4972485;28;20234;-73
2023/08/19 08:07:15;;;;;;;7.25;3.58;;;;;;;;;;4972124;28;20211;-72
2023/08/19 08:09:43;;;;;;;4.20;3.53;;;;;;;;;;4971890;28;20239;-72
2023/08/19 08:12:10;;;;;;;6.53;3.38;;;;;;;;;;4972451;28;20298;-72
2023/08/19 08:14:36;;;;;;;9.20;3.25;;;;;;;;;;4972363;28;20203;-72
2023/08/19 08:17:04;;;;;;;5.60;3.42;;;;;;;;;;4974751;28;20215;-72
2023/08/19 08:19:30;;;;;;;6.60;3.38;;;;;;;;;;4975602;28;20215;-72
2023/08/19 08:21:56;;;;;;;6.80;3.33;;;;;;;;;;4975971;28;20203;-73
2023/08/19 08:24:23;;;;;;;5.97;3.38;;;;;;;;;;4967725;28;20199;-73
2023/08/19 08:26:50;;;;;;;8.30;3.50;;;;;;;;;;4975686;28;20567;-73
2023/08/19 08:29:16;;;;;;;8.88;3.58;;;;;;;;;;4975162;28;20231;-73
2023/08/19 08:31:43;;;;;;;6.05;3.03;;;;;;;;;;4975725;28;20210;-73
2023/08/19 08:34:10;;;;;;;5.40;3.47;;;;;;;;;;4975544;28;20299;-72
2023/08/19 08:36:37;;;;;;;9.05;3.20;;;;;;;;;;4975564;28;20207;-73
2023/08/19 08:39:03;;;;;;;7.03;3.10;;;;;;;;;;4974904;28;20227;-73
2023/08/19 08:41:30;;;;;;;6.43;3.05;;;;;;;;;;4975605;28;20195;-73
2023/08/19 08:43:58;;;;;;;9.57;3.35;;;;;;;;;;4975449;28;20207;-73
2023/08/19 08:46:26;;;;;;;5.18;3.22;;;;;;;;;;4967610;28;20203;-73
2023/08/19 08:48:53;;;;;;;7.13;3.00;;;;;;;;;;4974934;28;20242;-73
2023/08/19 08:51:22;;;;;;;5.95;3.45;;;;;;;;;;4975248;28;20211;-73
2023/08/19 08:53:49;;;;;;;8.18;3.25;;;;;;;;;;4975219;28;20215;-73
2023/08/19 08:56:15;;;;;;;4.93;3.13;;;;;;;;;;4975183;28;20203;-73
2023/08/19 08:58:44;;;;;;;3.08;2.85;;;;;;;;;;4974931;28;20219;-73
2023/08/19 09:01:10;;;;;;;5.47;3.47;;;;;;;;;;4974873;28;20683;-72
2023/08/19 09:03:39;;;;;;;5.57;3.35;;;;;;;;;;4974924;28;20668;-74
2023/08/19 09:06:08;;;;;;;7.80;3.10;;;;;;;;;;4974898;28;20585;-73
2023/08/19 09:08:38;;;;;;;5.60;2.95;;;;;;;;;;4974574;28;20415;-73
2023/08/19 09:11:08;;;;;;;10.65;3.17;;;;;;;;;;4974872;28;20671;-73
2023/08/19 09:13:35;;;;;;;6.40;3.17;;;;;;;;;;4975098;28;20196;-73
2023/08/19 09:16:01;;;;;;;10.35;3.67;;;;;;;;;;4974848;28;20214;-72
2023/08/19 09:18:28;;;;;;;10.18;3.85;;;;;;;;;;4974558;28;20215;-73
2023/08/19 09:20:54;;;;;;;3.92;2.70;;;;;;;;;;4975226;28;20215;-73
2023/08/19 09:23:21;;;;;;;10.32;3.40;;;;;;;;;;4974815;28;20213;-73
2023/08/19 09:25:48;;;;;;;5.68;3.20;;;;;;;;;;4974718;28;20603;-73
2023/08/19 09:28:16;;;;;;;11.23;3.03;;;;;;;;;;4973654;28;20231;-74
2023/08/19 09:30:43;;;;;;;7.18;2.88;;;;;;;;;;4974691;28;20600;-74
2023/08/19 09:33:09;;;;;;;6.57;3.22;;;;;;;;;;4974428;28;20214;-73
2023/08/19 09:35:36;;;;;;;7.72;3.17;;;;;;;;;;4974634;28;20283;-73
2023/08/19 09:38:03;;;;;;;10.13;3.20;;;;;;;;;;4973896;28;20703;-73
2023/08/19 09:40:29;;;;;;;4.53;3.00;;;;;;;;;;4974367;28;20223;-73
2023/08/19 09:42:58;;;;;;;8.38;3.00;;;;;;;;;;4974320;28;20294;-74
2023/08/19 09:45:25;;;;;;;7.70;3.30;;;;;;;;;;4974181;28;20206;-73
2023/08/19 09:47:52;;;;;;;3.22;2.83;;;;;;;;;;4973908;28;20754;-72
2023/08/19 09:50:20;;;;;;;4.30;2.80;;;;;;;;;;4974423;28;20205;-74
2023/08/19 09:52:52;;;;;;;9.60;3.00;;;;;;;;;;4974536;28;20211;-73
2023/08/19 09:55:22;;;;;;;7.70;3.10;;;;;;;;;;4974070;28;20734;-72
2023/08/19 09:57:48;;;;;;;6.85;3.10;;;;;;;;;;4974067;28;20223;-73
2023/08/19 10:00:16;;;;;;;11.32;3.30;;;;;;;;;;4974302;28;20315;-73
2023/08/19 10:02:42;;;;;;;7.55;3.20;;;;;;;;;;4974486;28;20210;-72
2023/08/19 10:05:09;;;;;;;7.80;2.83;;;;;;;;;;4973966;28;20668;-72
2023/08/19 10:07:37;;;;;;;6.43;2.97;;;;;;;;;;4973826;28;20203;-72
2023/08/19 10:10:05;;;;;;;7.78;2.80;;;;;;;;;;4973923;28;20678;-72
2023/08/19 10:12:33;;;;;;;6.35;2.88;;;;;;;;;;4974404;28;20195;-72
2023/08/19 10:15:00;;;;;;;11.48;2.95;;;;;;;;;;4974043;28;20206;-73
2023/08/19 10:17:29;;;;;;;10.48;3.00;;;;;;;;;;4973900;28;20203;-72
2023/08/19 10:19:58;;;;;;;6.38;2.80;;;;;;;;;;4974106;28;20200;-73
2023/08/19 10:22:25;;;;;;;8.85;2.70;;;;;;;;;;4973893;28;20239;-73
2023/08/19 10:24:52;;;;;;;8.85;3.08;;;;;;;;;;4973829;28;20208;-72
2023/08/19 10:27:18;;;;;;;4.50;2.75;;;;;;;;;;4973241;28;20306;-72
2023/08/19 10:29:45;;;;;;;13.77;3.00;;;;;;;;;;4973671;28;20230;-73
2023/08/19 10:32:25;;;;;;;3.00;2.67;;;;;;;;;;4973688;28;20199;-73
2023/08/19 10:35:00;;;;;;;4.03;2.80;;;;;;;;;;4973726;28;20207;-73
2023/08/19 10:37:29;;;;;;;8.13;3.17;;;;;;;;;;4973266;28;20206;-73
2023/08/19 10:40:06;;;;;;;5.43;3.20;;;;;;;;;;4972817;28;20206;-73
2023/08/19 10:42:32;;;;;;;6.10;3.10;;;;;;;;;;4965999;28;20282;-73
2023/08/19 10:44:59;;;;;;;6.95;2.97;;;;;;;;;;4973836;28;20207;-73
2023/08/19 10:47:25;;;;;;;6.80;2.70;;;;;;;;;;4973013;28;20203;-73
2023/08/19 10:50:00;;;;;;;3.58;2.60;;;;;;;;;;4973025;28;20621;-73
2023/08/19 10:52:26;;;;;;;9.35;3.10;;;;;;;;;;4972951;28;20213;-73
2023/08/19 10:54:53;;;;;;;6.80;2.80;;;;;;;;;;4973090;28;20203;-73
2023/08/19 10:57:22;;;;;;;5.68;2.75;;;;;;;;;;4973402;28;20210;-73
2023/08/19 10:59:51;;;;;;;5.97;2.60;;;;;;;;;;4973213;28;20223;-73
2023/08/19 11:02:18;;;;;;;8.63;2.80;;;;;;;;;;4973141;28;20676;-72
2023/08/19 11:04:47;;;;;;;8.07;2.60;;;;;;;;;;4972940;28;20224;-73
2023/08/19 11:07:14;;;;;;;4.70;2.30;;;;;;;;;;4973291;28;20203;-72
2023/08/19 11:09:42;;;;;;;8.32;2.63;;;;;;;;;;4972601;28;20222;-74
2023/08/19 11:12:08;;;;;;;6.65;2.50;;;;;;;;;;4973567;28;20254;-72
2023/08/19 11:14:34;;;;;;;3.83;2.50;;;;;;;;;;4965193;28;20203;-73
2023/08/19 11:17:02;;;;;;;4.25;2.60;;;;;;;;;;4972832;28;20203;-73
2023/08/19 11:19:30;;;;;;;2.75;2.30;;;;;;;;;;4972203;28;20252;-73
2023/08/19 11:21:57;;;;;;;4.35;2.38;;;;;;;;;;4972747;28;20698;-72
2023/08/19 11:24:31;;;;;;;3.88;2.45;;;;;;;;;;4972784;28;20218;-73
2023/08/19 11:26:57;;;;;;;6.50;2.33;;;;;;;;;;4973118;28;20203;-73
2023/08/19 11:29:24;;;;;;;5.28;2.28;;;;;;;;;;4972491;28;20230;-72
2023/08/19 11:31:50;;;;;;;4.93;2.45;;;;;;;;;;4973005;28;20199;-72
2023/08/19 11:34:16;;;;;;;4.63;2.80;;;;;;;;;;4968707;28;20210;-72
2023/08/19 11:36:44;;;;;;;8.23;2.53;;;;;;;;;;4963583;28;20545;-73
2023/08/19 11:39:11;;;;;;;4.10;2.40;;;;;;;;;;4951188;28;20231;-73
2023/08/19 11:41:39;;;;;;;3.38;2.30;;;;;;;;;;4962746;28;20826;-74
2023/08/19 11:44:06;;;;;;;7.50;2.47;;;;;;;;;;4967093;28;20222;-73
2023/08/19 11:46:33;;;;;;;6.03;2.35;;;;;;;;;;4966613;28;20230;-72
2023/08/19 11:49:01;;;;;;;6.47;3.00;;;;;;;;;;4967019;28;20231;-72
2023/08/19 11:51:27;;;;;;;4.93;2.30;;;;;;;;;;4970575;28;20238;-72
2023/08/19 11:53:56;;;;;;;7.07;2.72;;;;;;;;;;4970901;28;20214;-73
2023/08/19 11:56:22;;;;;;;4.00;2.22;;;;;;;;;;4970999;28;20226;-72
2023/08/19 11:58:50;;;;;;;3.83;2.03;;;;;;;;;;4970564;28;20275;-73
2023/08/19 12:01:17;;;;;;;3.30;2.13;;;;;;;;;;4970649;28;20293;-73
2023/08/19 12:03:44;;;;;;;5.00;2.40;;;;;;;;;;4970940;28;20215;-74
2023/08/19 12:06:10;;;;;;;4.03;2.47;;;;;;;;;;4970923;28;20265;-72
2023/08/19 12:08:39;;;;;;;9.27;2.08;;;;;;;;;;4970159;28;20619;-72
2023/08/19 12:11:05;;;;;;;6.40;2.50;;;;;;;;;;4970774;28;20211;-72
2023/08/19 12:13:31;;;;;;;5.03;2.38;;;;;;;;;;4970481;28;20215;-72
2023/08/19 12:15:59;;;;;;;5.40;3.10;;;;;;;;;;4970439;28;20639;-73
2023/08/19 12:18:26;;;;;;;3.10;2.28;;;;;;;;;;4970517;28;20238;-73
2023/08/19 12:20:52;;;;;;;7.68;2.35;;;;;;;;;;4970906;28;20207;-73
2023/08/19 12:23:19;;;;;;;5.30;2.40;;;;;;;;;;4970623;28;20203;-74
2023/08/19 12:25:49;;;;;;;7.75;2.17;;;;;;;;;;4970896;28;20218;-73
2023/08/19 12:28:15;;;;;;;6.88;2.40;;;;;;;;;;4970127;28;20223;-72
2023/08/19 12:30:41;;;;;;;5.18;2.30;;;;;;;;;;4970152;28;20227;-71
2023/08/19 12:33:09;;;;;;;6.53;2.40;;;;;;;;;;4970234;28;20217;-73
2023/08/19 12:35:36;;;;;;;7.25;2.55;;;;;;;;;;4970130;28;20211;-73
2023/08/19 12:38:02;;;;;;;6.97;2.15;;;;;;;;;;4970012;28;20223;-72
2023/08/19 12:40:29;;;;;;;3.88;2.35;;;;;;;;;;4970126;28;20238;-73
2023/08/19 12:42:55;;;;;;;7.88;2.78;;;;;;;;;;4970088;28;20218;-73
2023/08/19 12:45:21;;;;;;;8.02;2.08;;;;;;;;;;4970227;28;20751;-73
2023/08/19 12:47:48;;;;;;;4.95;1.95;;;;;;;;;;4969607;28;20234;-73
2023/08/19 12:50:15;;;;;;;5.07;2.40;;;;;;;;;;4969971;28;20235;-73
2023/08/19 12:52:42;;;;;;;2.33;2.00;;;;;;;;;;4969926;28;20223;-73
2023/08/19 12:55:08;;;;;;;6.80;2.00;;;;;;;;;;4969903;28;20759;-73
2023/08/19 12:57:42;;;;;;;6.30;2.08;;;;;;;;;;4969452;28;20208;-72
2023/08/19 13:00:09;;;;;;;3.58;1.60;;;;;;;;;;4970438;28;20215;-75
2023/08/19 13:02:35;;;;;;;3.22;1.73;;;;;;;;;;4969127;28;20215;-74
2023/08/19 13:05:01;;;;;;;4.53;1.92;;;;;;;;;;4969701;28;20327;-75
2023/08/19 13:07:29;;;;;;;2.72;1.70;;;;;;;;;;4969459;28;20696;-75
2023/08/19 13:09:56;;;;;;;2.10;1.77;;;;;;;;;;4969109;28;20222;-75
2023/08/19 13:12:22;;;;;;;6.20;2.22;;;;;;;;;;4969502;28;20217;-76
2023/08/19 13:14:48;;;;;;;3.78;2.10;;;;;;;;;;4969379;28;20221;-75
2023/08/19 13:17:15;;;;;;;5.35;1.83;;;;;;;;;;4969605;28;20215;-75
2023/08/19 13:19:41;;;;;;;4.60;1.98;;;;;;;;;;4969332;28;20234;-75
2023/08/19 13:22:07;;;;;;;5.97;2.38;;;;;;;;;;4969328;28;20382;-74
2023/08/19 13:24:35;;;;;;;3.33;2.20;;;;;;;;;;4969022;28;20220;-77
2023/08/19 13:27:03;;;;;;;4.03;2.10;;;;;;;;;;4969175;28;20207;-75
2023/08/19 13:29:29;;;;;;;3.47;2.38;;;;;;;;;;4968751;28;20234;-74
2023/08/19 13:31:55;;;;;;;4.80;2.03;;;;;;;;;;4968791;28;20210;-75
2023/08/19 13:34:22;;;;;;;7.82;2.22;;;;;;;;;;4969203;28;20203;-73
2023/08/19 13:36:48;;;;;;;3.78;2.10;;;;;;;;;;4961268;28;20289;-73
2023/08/19 13:39:15;;;;;;;2.25;2.15;;;;;;;;;;4968610;28;20242;-73
2023/08/19 13:41:43;;;;;;;3.60;2.50;;;;;;;;;;4969224;28;20207;-75
2023/08/19 13:44:09;;;;;;;2.45;2.20;;;;;;;;;;4968236;28;20207;-76
2023/08/19 13:46:35;;;;;;;6.30;2.45;;;;;;;;;;4968629;28;20706;-74
2023/08/19 13:49:01;;;;;;;4.45;2.30;;;;;;;;;;4968516;28;20536;-74
2023/08/19 13:51:28;;;;;;;5.80;2.90;;;;;;;;;;4968844;28;20215;-73
2023/08/19 13:53:54;;;;;;;6.18;3.03;;;;;;;;;;4968603;28;20214;-74
2023/08/19 13:56:20;;;;;;;3.65;2.47;;;;;;;;;;4968578;28;20211;-74
2023/08/19 13:58:48;;;;;;;4.82;2.53;;;;;;;;;;4968451;28;20223;-74
2023/08/19 14:01:15;;;;;;;7.35;2.60;;;;;;;;;;4968574;28;20598;-74
2023/08/19 14:03:41;;;;;;;6.28;2.35;;;;;;;;;;4968259;28;20211;-73
2023/08/19 14:06:08;;;;;;;10.95;2.78;;;;;;;;;;4959662;28;20212;-75
2023/08/19 14:08:36;;;;;;;5.20;2.40;;;;;;;;;;4967997;28;20322;-74
2023/08/19 14:11:02;;;;;;;7.43;2.92;;;;;;;;;;4968557;28;20219;-74
2023/08/19 14:13:28;;;;;;;5.40;3.00;;;;;;;;;;4968363;28;20210;-73
2023/08/19 14:15:56;;;;;;;9.40;3.10;;;;;;;;;;4968348;28;20215;-72
2023/08/19 14:18:22;;;;;;;11.68;3.65;;;;;;;;;;4967718;28;20711;-73
2023/08/19 14:20:49;;;;;;;8.52;3.50;;;;;;;;;;4967825;28;20199;-71
2023/08/19 14:23:15;;;;;;;6.88;3.20;;;;;;;;;;4967989;28;20211;-71
2023/08/19 14:25:41;;;;;;;6.60;3.47;;;;;;;;;;4968077;28;20215;-71
2023/08/19 14:28:07;;;;;;;7.18;3.75;;;;;;;;;;4967828;28;20226;-72
2023/08/19 14:30:35;;;;;;;8.38;3.47;;;;;;;;;;4967879;28;20220;-71
2023/08/19 14:33:04;;;;;;;6.88;3.75;;;;;;;;;;4967969;28;20211;-71
2023/08/19 14:35:30;;;;;;;10.48;3.50;;;;;;;;;;4967580;28;20230;-71
2023/08/19 14:37:57;;;;;;;5.80;3.67;;;;;;;;;;4967199;28;20317;-72
2023/08/19 14:40:24;;;;;;;6.40;3.80;;;;;;;;;;4967667;28;20210;-71
2023/08/19 14:42:50;;;;;;;6.10;3.50;;;;;;;;;;4967837;28;20219;-71